createdAt,value
2019-03-15T00:00:49.441Z,3.00
2019-03-15T00:03:19.815Z,2.90
2019-03-15T00:05:50.242Z,2.90
2019-03-15T00:08:20.635Z,2.90
2019-03-15T00:10:54.172Z,2.90
2019-03-15T00:13:24.597Z,2.90
2019-03-15T00:15:55.088Z,2.90
2019-03-15T00:18:31.488Z,2.80
2019-03-15T00:21:01.841Z,2.90
2019-03-15T00:23:32.285Z,2.90
2019-03-15T00:26:05.669Z,2.90
2019-03-15T00:28:36.087Z,2.90
2019-03-15T00:31:06.472Z,2.90
2019-03-15T00:33:41.510Z,2.80
2019-03-15T00:36:11.921Z,2.80
2019-03-15T00:38:45.375Z,2.80
2019-03-15T00:41:15.807Z,2.80
2019-03-15T00:43:49.246Z,2.80
2019-03-15T00:46:18.184Z,2.70
2019-03-15T00:48:48.594Z,2.70
2019-03-15T00:51:19.008Z,2.70
2019-03-15T00:53:49.409Z,2.70
2019-03-15T00:56:19.770Z,2.80
2019-03-15T00:58:53.215Z,2.80
2019-03-15T01:01:23.632Z,2.70
2019-03-15T01:03:54.040Z,2.60
2019-03-15T01:06:24.480Z,2.70
2019-03-15T01:08:54.979Z,2.70
2019-03-15T01:11:26.904Z,2.60
2019-03-15T01:13:57.303Z,2.60
2019-03-15T01:16:27.682Z,2.60
2019-03-15T01:18:58.106Z,2.60
2019-03-15T01:21:28.521Z,2.60
2019-03-15T01:23:58.974Z,2.60
2019-03-15T01:26:32.403Z,2.60
2019-03-15T01:29:02.842Z,2.60
2019-03-15T01:31:33.321Z,2.60
2019-03-15T01:34:03.739Z,2.70
2019-03-15T01:36:37.764Z,2.70
2019-03-15T01:39:10.081Z,2.70
2019-03-15T01:41:40.546Z,2.80
2019-03-15T01:44:10.955Z,2.80
2019-03-15T01:46:44.443Z,2.90
2019-03-15T01:49:14.839Z,2.90
2019-03-15T01:51:45.279Z,2.90
2019-03-15T01:54:15.684Z,2.90
2019-03-15T01:59:14.066Z,2.80
2019-03-15T02:01:44.465Z,2.70
2019-03-15T02:04:14.917Z,2.70
2019-03-15T02:06:45.343Z,2.70
2019-03-15T02:09:15.745Z,2.70
2019-03-15T02:11:47.873Z,2.70
2019-03-15T02:14:18.232Z,2.70
2019-03-15T02:16:49.010Z,2.60
2019-03-15T02:19:19.392Z,2.60
2019-03-15T02:21:49.911Z,2.50
2019-03-15T02:24:20.336Z,2.50
2019-03-15T02:26:53.755Z,2.50
2019-03-15T02:29:25.712Z,2.50
2019-03-15T02:31:58.013Z,2.50
2019-03-15T02:34:28.416Z,2.40
2019-03-15T02:36:58.898Z,2.30
2019-03-15T02:39:29.350Z,2.30
2019-03-15T02:41:59.738Z,2.20
2019-03-15T02:44:30.180Z,2.10
2019-03-15T02:47:00.608Z,2.20
2019-03-15T02:49:31.097Z,2.10
2019-03-15T02:52:01.474Z,2.20
2019-03-15T02:54:31.920Z,2.20
2019-03-15T02:57:02.310Z,2.20
2019-03-15T02:59:34.332Z,2.30
2019-03-15T03:02:04.759Z,2.30
2019-03-15T03:04:35.233Z,2.30
2019-03-15T03:07:05.645Z,2.20
2019-03-15T03:09:36.037Z,2.20
2019-03-15T03:12:06.465Z,2.20
2019-03-15T03:14:38.428Z,2.10
2019-03-15T03:17:10.178Z,2.10
2019-03-15T03:19:42.284Z,2.10
2019-03-15T03:22:12.684Z,2.10
2019-03-15T03:24:43.076Z,2.10
2019-03-15T03:27:13.491Z,2.10
2019-03-15T03:29:43.861Z,2.10
2019-03-15T03:32:14.529Z,2.10
2019-03-15T03:34:45.080Z,2.20
2019-03-15T03:37:16.995Z,2.20
2019-03-15T03:39:50.132Z,2.10
2019-03-15T03:42:20.536Z,2.20
2019-03-15T03:44:51.441Z,2.10
2019-03-15T03:47:22.224Z,2.10
2019-03-15T03:49:54.743Z,2.00
2019-03-15T03:52:25.152Z,2.00
2019-03-15T03:54:55.564Z,2.00
2019-03-15T03:57:27.606Z,2.10
2019-03-15T03:59:58.058Z,2.10
2019-03-15T04:02:28.733Z,2.00
2019-03-15T04:04:59.125Z,2.00
2019-03-15T04:07:32.843Z,2.00
2019-03-15T04:10:05.646Z,2.00
2019-03-15T04:12:36.275Z,2.10
2019-03-15T04:15:10.865Z,2.10
2019-03-15T04:17:44.240Z,2.00
2019-03-15T04:20:16.322Z,2.00
2019-03-15T04:22:49.478Z,2.10
2019-03-15T04:25:19.997Z,2.10
2019-03-15T04:27:53.704Z,2.20
2019-03-15T04:30:24.475Z,2.20
2019-03-15T04:32:55.398Z,2.20
2019-03-15T04:35:29.477Z,2.20
2019-03-15T04:37:59.864Z,2.10
2019-03-15T04:40:30.282Z,2.20
2019-03-15T04:43:01.111Z,2.30
2019-03-15T04:45:31.469Z,2.40
2019-03-15T04:48:02.694Z,2.40
2019-03-15T04:50:37.636Z,2.40
2019-03-15T04:53:08.073Z,2.40
2019-03-15T04:55:39.981Z,2.60
2019-03-15T04:58:14.932Z,2.70
2019-03-15T05:00:50.201Z,2.90
2019-03-15T05:03:21.373Z,3.10
2019-03-15T05:06:02.382Z,3.30
2019-03-15T05:08:24.063Z,3.60
2019-03-15T05:10:59.344Z,3.70
2019-03-15T05:13:29.579Z,3.70
2019-03-15T05:16:00.010Z,3.40
2019-03-15T05:18:32.072Z,3.20
2019-03-15T05:21:09.683Z,3.10
2019-03-15T05:23:40.654Z,3.20
2019-03-15T05:26:16.710Z,3.30
2019-03-15T05:28:52.703Z,3.60
2019-03-15T05:31:23.096Z,3.90
2019-03-15T05:33:56.165Z,4.20
2019-03-15T05:36:25.679Z,4.40
2019-03-15T05:38:57.719Z,4.20
2019-03-15T05:41:28.187Z,4.10
2019-03-15T05:43:58.695Z,4.20
2019-03-15T05:46:33.338Z,4.40
2019-03-15T05:49:03.843Z,4.50
2019-03-15T05:51:34.400Z,4.70
2019-03-15T05:54:04.854Z,4.80
2019-03-15T05:56:35.388Z,4.60
2019-03-15T05:59:05.887Z,4.60
2019-03-15T06:01:36.317Z,4.50
2019-03-15T06:04:06.777Z,4.50
2019-03-15T06:06:37.284Z,4.40
2019-03-15T06:09:07.709Z,4.30
2019-03-15T06:11:38.172Z,4.30
2019-03-15T06:14:10.027Z,4.40
2019-03-15T06:16:40.471Z,4.60
2019-03-15T06:19:10.921Z,4.50
2019-03-15T06:21:41.356Z,4.50
2019-03-15T06:24:11.854Z,4.90
2019-03-15T06:26:42.390Z,4.90
2019-03-15T06:29:12.792Z,4.90
2019-03-15T06:31:45.456Z,5.10
2019-03-15T06:36:47.652Z,5.30
2019-03-15T06:39:18.056Z,5.70
2019-03-15T06:41:51.422Z,6.10
2019-03-15T06:44:21.915Z,6.10
2019-03-15T06:46:54.029Z,5.90
2019-03-15T06:49:29.058Z,5.90
2019-03-15T06:51:59.730Z,5.80
2019-03-15T06:54:30.618Z,5.80
2019-03-15T06:57:01.008Z,5.60
2019-03-15T06:59:31.468Z,5.50
2019-03-15T07:02:02.003Z,5.30
2019-03-15T07:04:32.480Z,5.20
2019-03-15T07:07:02.933Z,5.10
2019-03-15T07:09:33.383Z,5.50
2019-03-15T07:12:09.730Z,5.50
2019-03-15T07:14:40.769Z,5.70
2019-03-15T07:17:11.175Z,5.70
2019-03-15T07:19:42.299Z,5.60
2019-03-15T07:22:14.672Z,5.60
2019-03-15T07:24:48.106Z,5.80
2019-03-15T07:27:18.534Z,5.70
2019-03-15T07:29:49.049Z,5.60
2019-03-15T07:32:19.462Z,5.60
2019-03-15T07:34:51.050Z,5.40
2019-03-15T07:37:21.962Z,5.40
2019-03-15T07:39:52.471Z,5.50
2019-03-15T07:42:22.844Z,5.40
2019-03-15T07:44:54.846Z,5.70
2019-03-15T07:47:25.255Z,6.00
2019-03-15T07:49:55.680Z,6.80
2019-03-15T07:52:26.166Z,7.20
2019-03-15T07:54:58.226Z,7.40
2019-03-15T07:57:28.634Z,7.10
2019-03-15T08:00:02.087Z,7.00
2019-03-15T08:02:32.589Z,7.10
2019-03-15T08:05:03.051Z,6.90
2019-03-15T08:07:44.201Z,7.00
2019-03-15T08:10:12.132Z,7.00
2019-03-15T08:12:42.560Z,7.10
2019-03-15T08:15:13.980Z,7.60
2019-03-15T08:17:44.464Z,7.30
2019-03-15T08:20:15.608Z,7.40
2019-03-15T08:22:48.033Z,7.30
2019-03-15T08:25:19.329Z,6.90
2019-03-15T08:27:49.834Z,6.80
2019-03-15T08:30:20.293Z,6.70
2019-03-15T08:32:53.999Z,6.80
2019-03-15T08:35:27.366Z,6.10
2019-03-15T08:37:57.836Z,6.10
2019-03-15T08:40:32.941Z,6.20
2019-03-15T08:43:05.836Z,6.30
2019-03-15T08:45:36.389Z,6.50
2019-03-15T08:48:07.202Z,6.70
2019-03-15T08:50:40.610Z,6.50
2019-03-15T08:53:11.145Z,6.40
2019-03-15T08:55:41.593Z,6.40
2019-03-15T08:58:15.747Z,6.50
2019-03-15T09:00:44.141Z,6.70
2019-03-15T09:03:27.251Z,6.60
2019-03-15T09:05:46.919Z,6.60
2019-03-15T09:08:17.457Z,6.50
2019-03-15T09:10:47.877Z,6.30
2019-03-15T09:13:18.466Z,6.20
2019-03-15T09:15:48.903Z,6.10
2019-03-15T09:18:19.437Z,6.10
2019-03-15T09:20:50.372Z,6.10
2019-03-15T09:23:21.049Z,6.20
2019-03-15T09:25:51.655Z,6.30
2019-03-15T09:28:22.324Z,6.30
2019-03-15T09:30:52.882Z,6.60
2019-03-15T09:33:23.421Z,6.60
2019-03-15T09:35:57.394Z,6.70
2019-03-15T09:38:28.399Z,6.10
2019-03-15T09:40:58.923Z,6.10
2019-03-15T09:43:34.012Z,6.10
2019-03-15T09:46:07.009Z,6.30
2019-03-15T09:48:37.588Z,6.50
2019-03-15T09:51:13.885Z,6.20
2019-03-15T09:53:44.708Z,6.30
2019-03-15T09:56:17.721Z,6.20
2019-03-15T09:58:48.353Z,6.20
2019-03-15T10:01:34.702Z,6.30
2019-03-15T10:04:00.845Z,6.50
2019-03-15T10:06:40.133Z,6.50
2019-03-15T10:09:16.988Z,6.60
2019-03-15T10:11:51.887Z,6.80
2019-03-15T10:14:22.959Z,7.20
2019-03-15T10:16:53.457Z,7.30
2019-03-15T10:19:24.075Z,7.10
2019-03-15T10:21:54.618Z,6.70
2019-03-15T10:24:30.909Z,7.00
2019-03-15T10:27:17.680Z,7.10
2019-03-15T10:29:48.670Z,7.20
2019-03-15T10:32:24.223Z,7.00
2019-03-15T10:34:58.085Z,6.90
2019-03-15T10:37:28.447Z,6.80
2019-03-15T10:39:58.883Z,6.70
2019-03-15T10:42:29.531Z,6.70
2019-03-15T10:44:59.914Z,7.00
2019-03-15T10:47:31.891Z,6.60
2019-03-15T10:50:02.431Z,6.30
2019-03-15T10:52:38.963Z,6.60
2019-03-15T12:09:07.126Z,6.90
2019-03-15T12:11:39.984Z,6.80
2019-03-15T12:14:13.407Z,6.80
2019-03-15T12:16:45.764Z,6.80
2019-03-15T12:19:16.453Z,6.90
2019-03-15T12:21:49.418Z,7.00
2019-03-15T12:24:26.419Z,7.20
2019-03-15T12:27:03.702Z,7.60
2019-03-15T12:29:38.440Z,7.40
2019-03-15T12:32:14.636Z,7.50
2019-03-15T14:30:26.425Z,5.70
2019-03-15T14:33:02.042Z,5.70
2019-03-15T14:35:32.628Z,5.60
2019-03-15T14:38:04.908Z,5.60
2019-03-15T14:40:41.181Z,5.70
2019-03-15T14:43:14.217Z,5.70
2019-03-15T14:45:47.077Z,5.70
2019-03-15T14:48:19.021Z,5.50
2019-03-15T14:50:49.542Z,5.50
2019-03-15T14:53:20.112Z,5.50
2019-03-15T14:55:50.600Z,5.50
2019-03-15T14:58:21.103Z,5.50
2019-03-15T15:00:51.768Z,5.50
2019-03-15T15:03:22.251Z,5.40
2019-03-15T15:05:52.715Z,5.40
2019-03-15T15:08:23.291Z,5.40
2019-03-15T15:10:55.505Z,5.40
2019-03-15T15:13:26.149Z,5.40
2019-03-15T15:15:56.565Z,5.30
2019-03-15T15:18:27.237Z,5.30
2019-03-15T15:21:00.761Z,5.30
2019-03-15T15:23:34.818Z,5.30
2019-03-15T15:26:06.759Z,5.30
2019-03-15T15:28:58.633Z,5.30
2019-03-15T15:31:34.807Z,5.20
2019-03-15T15:34:08.377Z,5.20
2019-03-15T15:36:41.301Z,5.20
2019-03-15T15:40:04.604Z,5.20
2019-03-15T15:42:35.031Z,5.20
2019-03-15T15:45:07.662Z,5.10
2019-03-15T15:47:38.080Z,5.10
2019-03-15T15:50:14.070Z,5.10
2019-03-15T15:52:44.757Z,5.00
2019-03-15T15:55:16.577Z,4.90
2019-03-15T15:57:47.262Z,5.00
2019-03-15T16:00:18.387Z,5.00
2019-03-15T16:02:48.837Z,5.00
2019-03-15T16:05:19.323Z,5.00
2019-03-15T16:07:49.779Z,5.00
2019-03-15T16:10:20.259Z,4.90
2019-03-15T16:12:52.409Z,5.00
2019-03-15T16:15:22.898Z,5.00
2019-03-15T16:17:56.198Z,5.00
2019-03-15T16:20:34.801Z,4.90
2019-03-15T16:23:02.443Z,4.90
2019-03-15T16:26:02.242Z,4.90
2019-03-15T16:28:36.117Z,4.90
2019-03-15T16:31:05.632Z,4.90
2019-03-15T16:33:36.044Z,4.80
2019-03-15T16:36:06.469Z,4.80
2019-03-15T16:38:37.088Z,4.80
2019-03-15T16:41:10.765Z,4.80
2019-03-15T16:50:06.072Z,4.80
2019-03-15T16:52:40.377Z,4.80
2019-03-15T16:55:14.776Z,4.70
2019-03-15T16:57:45.390Z,4.60
2019-03-15T17:00:32.986Z,4.50
2019-03-15T17:03:05.280Z,4.50
2019-03-15T17:05:35.873Z,4.50
2019-03-15T17:08:06.634Z,4.50
2019-03-15T17:10:37.121Z,4.50
2019-03-15T17:13:07.561Z,4.50
2019-03-15T17:15:40.864Z,4.50
2019-03-15T17:18:12.959Z,4.50
2019-03-15T17:20:47.558Z,4.50
2019-03-15T17:30:10.846Z,4.40
2019-03-15T17:33:22.345Z,4.40
2019-03-15T17:39:03.649Z,4.40
2019-03-15T17:41:34.903Z,4.40
2019-03-15T17:44:08.624Z,4.30
2019-03-15T17:46:39.269Z,4.30
2019-03-15T17:49:11.470Z,4.30
2019-03-15T17:51:47.967Z,4.20
2019-03-15T17:54:18.733Z,4.20
2019-03-15T17:56:58.196Z,4.20
2019-03-15T18:00:09.539Z,4.10
2019-03-15T18:02:42.141Z,4.10
2019-03-15T18:05:12.667Z,4.10
2019-03-15T18:07:47.645Z,4.20
2019-03-15T18:10:23.623Z,4.20
2019-03-15T18:12:53.824Z,4.10
2019-03-15T18:15:26.077Z,4.10
2019-03-15T18:21:08.156Z,4.10
2019-03-15T18:23:42.195Z,4.10
2019-03-15T18:26:16.696Z,4.10
2019-03-15T18:28:50.271Z,4.10
2019-03-15T18:31:23.376Z,4.00
2019-03-15T18:33:54.136Z,4.00
2019-03-15T18:39:33.773Z,3.90
2019-03-15T18:42:16.719Z,4.00
2019-03-15T18:44:47.426Z,4.00
2019-03-15T18:47:17.955Z,3.90
2019-03-15T18:49:48.477Z,3.90
2019-03-15T18:56:11.512Z,3.80
2019-03-15T18:58:43.236Z,3.80
2019-03-15T19:01:13.995Z,3.80
2019-03-15T19:03:46.131Z,3.80
2019-03-15T19:06:20.387Z,3.80
2019-03-15T19:12:21.629Z,3.80
2019-03-15T19:14:54.824Z,3.90
2019-03-15T19:17:26.944Z,3.90
2019-03-15T19:20:01.001Z,3.90
2019-03-15T19:22:33.566Z,4.00
2019-03-15T19:25:04.424Z,3.90
2019-03-15T19:27:41.297Z,3.90
2019-03-15T19:30:21.291Z,3.80
2019-03-15T19:32:51.897Z,3.80
2019-03-15T19:35:23.925Z,3.70
2019-03-15T19:37:55.825Z,3.60
2019-03-15T19:40:31.688Z,3.70
2019-03-15T19:43:03.246Z,3.80
2019-03-15T19:45:39.251Z,3.80
2019-03-15T19:48:12.822Z,3.90
2019-03-15T19:50:44.866Z,3.90
2019-03-15T19:53:15.370Z,3.80
2019-03-15T19:55:45.745Z,3.80
2019-03-15T19:58:16.475Z,3.80
2019-03-15T20:00:48.074Z,3.80
2019-03-15T20:03:18.599Z,3.70
2019-03-15T20:05:48.939Z,3.80
2019-03-15T20:08:19.668Z,3.80
2019-03-15T20:10:50.244Z,3.70
2019-03-15T20:13:23.300Z,3.70
2019-03-15T20:15:53.835Z,3.70
2019-03-15T20:18:25.252Z,3.70
2019-03-15T20:20:55.912Z,3.70
2019-03-15T20:23:29.130Z,3.70
2019-03-15T20:25:59.670Z,3.70
2019-03-15T20:28:30.335Z,3.70
2019-03-15T20:31:02.182Z,3.70
2019-03-15T20:33:35.381Z,3.80
2019-03-15T20:36:05.855Z,3.90
2019-03-15T20:38:37.625Z,3.80
2019-03-15T20:41:10.559Z,3.70
2019-03-15T20:43:44.374Z,3.60
2019-03-15T20:49:18.125Z,3.70
2019-03-15T20:51:51.203Z,3.50
2019-03-15T20:54:29.085Z,3.50
2019-03-15T20:56:59.427Z,3.40
2019-03-15T20:59:29.904Z,3.50
2019-03-15T21:02:08.865Z,3.50
2019-03-15T21:04:34.897Z,3.50
2019-03-15T21:07:05.384Z,3.60
2019-03-15T21:09:35.986Z,3.80
2019-03-15T21:12:06.481Z,3.70
2019-03-15T21:14:36.964Z,3.60
2019-03-15T21:17:07.421Z,3.50
2019-03-15T21:19:37.841Z,3.50
2019-03-15T21:22:10.640Z,3.40
2019-03-15T21:24:41.102Z,3.40
2019-03-15T21:27:11.566Z,3.30
2019-03-15T21:29:41.992Z,3.30
2019-03-15T21:32:12.461Z,3.30
2019-03-15T21:34:43.765Z,3.30
2019-03-15T21:37:14.309Z,3.30
2019-03-15T21:39:45.535Z,3.30
2019-03-15T21:42:16.840Z,3.30
2019-03-15T21:44:47.294Z,3.20
2019-03-15T21:47:17.757Z,3.20
2019-03-15T21:49:48.334Z,3.10
2019-03-15T21:52:18.827Z,3.10
2019-03-15T21:54:49.298Z,3.10
2019-03-15T21:57:19.743Z,3.10
2019-03-15T21:59:50.220Z,3.10
2019-03-15T22:02:20.639Z,3.10
2019-03-15T22:04:51.265Z,3.10
2019-03-15T22:07:21.691Z,3.10
2019-03-15T22:09:56.636Z,3.10
2019-03-15T22:12:27.021Z,3.10
2019-03-15T22:14:57.490Z,3.10
2019-03-15T22:17:27.945Z,3.10
2019-03-15T22:19:58.498Z,3.10
2019-03-15T22:22:28.908Z,3.10
2019-03-15T22:24:59.456Z,3.20
2019-03-15T22:27:29.859Z,3.10
2019-03-15T22:30:00.412Z,3.10
2019-03-15T22:32:30.862Z,3.10
2019-03-15T22:35:01.341Z,3.10
2019-03-15T22:37:31.789Z,3.10
2019-03-15T22:40:02.274Z,3.10
2019-03-15T22:42:32.814Z,3.10
2019-03-15T22:45:03.672Z,3.10
2019-03-15T22:47:35.292Z,3.10
2019-03-15T22:50:07.669Z,3.10
2019-03-15T22:52:38.246Z,3.10
2019-03-15T22:55:10.143Z,3.10
2019-03-15T22:57:43.166Z,3.00
2019-03-15T23:00:18.397Z,3.00
2019-03-15T23:02:48.985Z,3.00
2019-03-15T23:05:19.952Z,3.00
2019-03-15T23:07:52.473Z,2.90
2019-03-15T23:10:30.506Z,2.90
2019-03-15T23:13:00.968Z,2.90
2019-03-15T23:15:32.876Z,2.90
2019-03-15T23:18:06.075Z,2.80
2019-03-15T23:20:36.552Z,2.60
2019-03-15T23:23:08.752Z,2.60
2019-03-15T23:25:39.238Z,2.50
2019-03-15T23:28:09.821Z,2.40
2019-03-15T23:30:40.226Z,2.40
2019-03-15T23:33:10.735Z,2.30
2019-03-15T23:35:53.370Z,2.20
2019-03-15T23:38:13.887Z,2.10
2019-03-15T23:40:44.340Z,2.10
2019-03-15T23:43:19.918Z,2.00
2019-03-15T23:45:51.448Z,2.00
2019-03-15T23:48:24.008Z,1.90
2019-03-15T23:50:54.462Z,1.90
2019-03-15T23:53:25.272Z,1.90
2019-03-15T23:55:55.755Z,1.90
2019-03-15T23:58:27.046Z,1.90
